This is the latest recevied weather packets stored in our database for station/object WB9FIU. If no packets are shown the sender has not sent any weather packets the latest 10 day(s).
| Time | Temp. | Humidity | Pressure | Rain* | Wind** | Luminosity | Snow |
|---|---|---|---|---|---|---|---|
| 1778196844 | 16.67° C | 32% | 1012.6 hPa | 0 mm | - | - | - |
| 1778196721 | 17.22° C | 34% | 1012.7 hPa | 0 mm | - | - | - |
| 1778185862 | 16.67° C | 34% | 1013.2 hPa | 0 mm | - | - | - |
| 1778185802 | 16.67° C | 34% | 1013.2 hPa | 0 mm | - | - | - |
| 1778185744 | 16.67° C | 33% | 1013.2 hPa | 0 mm | - | - | - |
| 1778185682 | 16.67° C | 34% | 1013.3 hPa | 0 mm | - | - | - |
| 1778185624 | 16.67° C | 34% | 1013.3 hPa | 0 mm | - | - | - |
| 1778171463 | 13.89° C | 40% | 1015.3 hPa | 0 mm | - | - | - |
| 1778171402 | 13.89° C | 41% | 1015.3 hPa | 0 mm | - | - | - |
| 1778171342 | 13.89° C | 40% | 1015.2 hPa | 0 mm | - | - | - |
| 1778171283 | 13.89° C | 40% | 1015.2 hPa | 0 mm | - | - | - |
| 1778171222 | 13.89° C | 40% | 1015.3 hPa | 0 mm | - | - | - |
| 1778171162 | 13.89° C | 39% | 1015.3 hPa | 0 mm | - | - | - |
| 1778171103 | 13.89° C | 39% | 1015.2 hPa | 0 mm | - | - | - |
| 1778171042 | 13.89° C | 39% | 1015.3 hPa | 0 mm | - | - | - |
| 1778170983 | 13.89° C | 40% | 1015.2 hPa | 0 mm | - | - | - |
| 1778170922 | 13.89° C | 42% | 1015.1 hPa | 0 mm | - | - | - |
| 1778170862 | 13.89° C | 41% | 1015.1 hPa | 0 mm | - | - | - |
| 1778170805 | 13.33° C | 41% | 1015.2 hPa | 0 mm | - | - | - |
| 1778170741 | 13.89° C | 42% | 1015.3 hPa | 0 mm | - | - | - |
| 1778170682 | 13.33° C | 40% | 1015.3 hPa | 0 mm | - | - | - |
| 1778170620 | 13.33° C | 40% | 1015.3 hPa | 0 mm | - | - | - |
| 1778170560 | 13.33° C | 39% | 1015.3 hPa | 0 mm | - | - | - |
| 1778170503 | 13.33° C | 39% | 1015.3 hPa | 0 mm | - | - | - |
| 1778170384 | 13.33° C | 38% | 1015.4 hPa | 0 mm | - | - | - |
* Rain latest hour (hover to see other rain measurements)
** Current wind speed in m/s (hover to see current wind gust speed)